createdAt,value
2016-10-25T00:00:24.762Z,69.32
2016-10-25T00:01:38.786Z,69.42
2016-10-25T00:02:23.681Z,69.7
2016-10-25T00:03:23.647Z,69.7
2016-10-25T00:04:23.641Z,69.03
2016-10-25T00:05:38.329Z,68.94
2016-10-25T00:06:23.577Z,69.32
2016-10-25T00:07:23.538Z,68.94
2016-10-25T00:08:23.514Z,69.13
2016-10-25T00:09:23.502Z,69.7
2016-10-25T00:10:23.465Z,69.8
2016-10-25T00:11:23.416Z,69.6
2016-10-25T00:12:23.393Z,70.18
2016-10-25T00:13:23.374Z,69.42
2016-10-25T00:14:23.337Z,69.51
2016-10-25T00:15:23.398Z,69.6
2016-10-25T00:16:23.291Z,69.51
2016-10-25T00:17:23.261Z,69.32
2016-10-25T00:18:23.648Z,69.23
2016-10-25T00:19:23.205Z,68.84
2016-10-25T00:20:23.162Z,69.03
2016-10-25T00:21:23.143Z,68.94
2016-10-25T00:22:23.119Z,68.84
2016-10-25T00:23:23.094Z,68.65
2016-10-25T00:24:23.046Z,69.89
2016-10-25T00:25:23.016Z,69.89
2016-10-25T00:26:22.994Z,69.6
2016-10-25T00:27:22.961Z,69.7
2016-10-25T00:28:22.993Z,69.99
2016-10-25T00:29:22.903Z,69.6
2016-10-25T00:30:22.876Z,70.09
2016-10-25T00:31:22.856Z,69.89
2016-10-25T00:32:37.552Z,69.89
2016-10-25T00:33:22.799Z,69.8
2016-10-25T00:34:22.763Z,69.51
2016-10-25T00:35:22.735Z,69.89
2016-10-25T00:36:22.719Z,70.56
2016-10-25T00:37:22.674Z,70.37
2016-10-25T00:38:22.668Z,70.28
2016-10-25T00:39:22.612Z,70.28
2016-10-25T00:40:22.598Z,70.47
2016-10-25T00:41:22.561Z,71.33
2016-10-25T00:42:22.542Z,70.56
2016-10-25T00:43:22.515Z,70.56
2016-10-25T00:44:22.481Z,70.18
2016-10-25T00:45:22.451Z,69.89
2016-10-25T00:46:22.772Z,69.89
2016-10-25T00:47:22.391Z,69.6
2016-10-25T00:48:22.357Z,69.89
2016-10-25T00:49:22.332Z,70.09
2016-10-25T00:50:22.309Z,69.8
2016-10-25T00:51:22.285Z,69.51
2016-10-25T00:52:37.276Z,69.89
2016-10-25T00:53:22.598Z,69.7
2016-10-25T00:54:22.566Z,69.6
2016-10-25T00:55:22.525Z,69.6
2016-10-25T00:56:22.569Z,69.32
2016-10-25T00:57:22.449Z,69.32
2016-10-25T00:58:22.069Z,69.51
2016-10-25T00:59:22.408Z,69.42
2016-10-25T01:00:22.410Z,69.51
2016-10-25T01:01:22.649Z,69.51
2016-10-25T01:02:22.332Z,69.7
2016-10-25T01:03:21.922Z,69.51
2016-10-25T01:04:21.905Z,69.99
2016-10-25T01:05:22.298Z,69.03
2016-10-25T01:06:21.841Z,69.51
2016-10-25T01:07:21.829Z,69.8
2016-10-25T01:08:22.168Z,69.7
2016-10-25T01:09:22.131Z,69.51
2016-10-25T01:10:21.730Z,69.8
2016-10-25T01:11:21.725Z,69.7
2016-10-25T01:12:21.666Z,69.7
2016-10-25T01:13:22.046Z,69.7
2016-10-25T01:14:21.625Z,69.51
2016-10-25T01:15:21.909Z,69.6
2016-10-25T01:16:21.563Z,69.7
2016-10-25T01:17:21.524Z,69.51
2016-10-25T01:18:21.497Z,70.09
2016-10-25T01:19:21.588Z,69.7
2016-10-25T01:20:21.456Z,69.51
2016-10-25T01:21:21.404Z,69.8
2016-10-25T01:22:21.393Z,69.7
2016-10-25T01:23:21.809Z,69.7
2016-10-25T01:24:21.330Z,69.32
2016-10-25T01:25:21.291Z,69.7
2016-10-25T01:26:21.629Z,69.51
2016-10-25T01:27:21.616Z,69.7
2016-10-25T01:28:36.252Z,69.89
2016-10-25T01:29:21.542Z,69.51
2016-10-25T01:30:21.152Z,69.51
2016-10-25T01:31:21.187Z,69.6
2016-10-25T01:32:22.421Z,69.51
2016-10-25T01:33:21.069Z,69.42
2016-10-25T01:34:21.053Z,70.95
2016-10-25T01:35:21.007Z,70.37
2016-10-25T01:36:21.058Z,70.37
2016-10-25T01:37:21.313Z,70.28
2016-10-25T01:38:20.926Z,70.18
2016-10-25T01:39:20.897Z,69.99
2016-10-25T01:40:20.872Z,70.56
2016-10-25T01:41:21.202Z,70.28
2016-10-25T01:42:20.814Z,70.09
2016-10-25T01:43:20.873Z,70.47
2016-10-25T01:44:20.758Z,69.89
2016-10-25T01:45:20.737Z,70.95
2016-10-25T01:46:20.709Z,70.21
2016-10-25T01:47:20.679Z,69.99
2016-10-25T01:48:20.673Z,69.8
2016-10-25T01:49:20.607Z,69.7
2016-10-25T01:50:20.599Z,70.21
2016-10-25T01:51:20.562Z,70.09
2016-10-25T01:52:20.538Z,70.18
2016-10-25T01:53:20.805Z,70.18
2016-10-25T01:55:20.522Z,70.18
2016-10-25T01:56:35.140Z,69.89
2016-10-25T01:57:20.380Z,70.18
2016-10-25T01:58:20.360Z,69.89
2016-10-25T01:59:20.343Z,69.8
2016-10-25T02:00:20.379Z,70.12
2016-10-25T02:01:20.257Z,70.12
2016-10-25T02:02:20.233Z,70.28
2016-10-25T02:03:20.270Z,70.37
2016-10-25T02:04:20.856Z,70.18
2016-10-25T02:05:20.157Z,69.51
2016-10-25T02:06:20.118Z,69.54
2016-10-25T02:07:20.087Z,69.42
2016-10-25T02:08:20.207Z,69.51
2016-10-25T02:09:20.074Z,69.54
2016-10-25T02:10:20.000Z,69.32
2016-10-25T02:11:20.366Z,69.42
2016-10-25T02:12:20.303Z,69.6
2016-10-25T02:13:19.916Z,69.51
2016-10-25T02:14:19.943Z,69.51
2016-10-25T02:15:19.878Z,69.51
2016-10-25T02:16:19.832Z,69.6
2016-10-25T02:17:19.825Z,69.7
2016-10-25T02:18:19.773Z,69.7
2016-10-25T02:19:19.737Z,69.7
2016-10-25T02:20:34.451Z,69.51
2016-10-25T02:21:19.760Z,69.51
2016-10-25T02:22:19.666Z,69.7
2016-10-25T02:23:19.651Z,69.8
2016-10-25T02:24:19.612Z,69.32
2016-10-25T02:25:19.580Z,69.51
2016-10-25T02:26:19.542Z,69.7
2016-10-25T02:28:19.489Z,69.7
2016-10-25T02:29:19.476Z,69.42
2016-10-25T02:30:19.425Z,69.89
2016-10-25T02:31:19.405Z,69.74
2016-10-25T02:32:19.376Z,69.54
2016-10-25T02:33:19.338Z,69.51
2016-10-25T02:34:19.340Z,69.07
2016-10-25T02:35:19.287Z,68.65
2016-10-25T02:36:19.251Z,68.94
2016-10-25T02:37:19.230Z,68.94
2016-10-25T02:38:19.210Z,68.87
2016-10-25T02:39:19.178Z,69.03
2016-10-25T02:40:19.171Z,68.74
2016-10-25T02:41:19.111Z,69.13
2016-10-25T02:42:19.081Z,68.74
2016-10-25T02:43:19.055Z,68.74
2016-10-25T02:44:33.818Z,68.97
2016-10-25T02:45:18.995Z,69.07
2016-10-25T02:46:19.351Z,68.68
2016-10-25T02:47:19.312Z,69.17
2016-10-25T02:48:18.921Z,69.17
2016-10-25T02:49:19.256Z,69.03
2016-10-25T02:50:19.223Z,68.74
2016-10-25T02:52:19.306Z,68.94
2016-10-25T02:53:18.778Z,68.97
2016-10-25T02:54:18.735Z,68.84
2016-10-25T02:55:18.725Z,69.26
2016-10-25T02:56:18.686Z,68.65
2016-10-25T02:57:18.653Z,69.17
2016-10-25T02:58:18.681Z,68.68
2016-10-25T02:59:18.601Z,69.17
2016-10-25T03:00:18.615Z,69.26
2016-10-25T03:01:20.260Z,69.26
2016-10-25T03:02:18.512Z,69.23
2016-10-25T03:03:18.474Z,69.17
2016-10-25T03:04:18.459Z,69.23
2016-10-25T03:05:18.433Z,69.03
2016-10-25T03:06:18.391Z,69.26
2016-10-25T03:07:18.398Z,68.97
2016-10-25T03:08:33.075Z,68.68
2016-10-25T03:09:18.308Z,68.59
2016-10-25T03:10:18.366Z,68.74
2016-10-25T03:11:18.249Z,68.78
2016-10-25T03:12:18.340Z,68.87
2016-10-25T03:13:18.189Z,68.97
2016-10-25T03:14:18.186Z,68.87
2016-10-25T03:15:34.608Z,69.26
2016-10-25T03:16:18.154Z,69.07
2016-10-25T03:17:32.815Z,69.17
2016-10-25T03:18:18.065Z,69.51
2016-10-25T03:19:18.020Z,70.21
2016-10-25T03:20:18.012Z,70.18
2016-10-25T03:21:17.965Z,69.93
2016-10-25T03:22:19.373Z,69.54
2016-10-25T03:23:17.932Z,69.64
2016-10-25T03:24:17.874Z,69.64
2016-10-25T03:25:17.868Z,69.93
2016-10-25T03:26:18.189Z,69.54
2016-10-25T03:27:18.154Z,69.93
2016-10-25T03:28:17.771Z,70.12
2016-10-25T03:29:17.741Z,70.12
2016-10-25T03:30:17.731Z,69.93
2016-10-25T03:31:17.717Z,70.12
2016-10-25T03:32:18.050Z,70.79
2016-10-25T03:33:18.008Z,72.61
2016-10-25T03:34:17.950Z,72.13
2016-10-25T03:35:17.669Z,71.08
2016-10-25T03:36:17.536Z,71.08
2016-10-25T03:37:17.520Z,71.08
2016-10-25T03:38:17.472Z,70.76
2016-10-25T03:39:32.186Z,71.08
2016-10-25T03:40:18.138Z,71.27
2016-10-25T03:41:17.392Z,70.31
2016-10-25T03:42:17.727Z,70.31
2016-10-25T03:43:17.740Z,70.09
2016-10-25T03:44:28.762Z,70.21
2016-10-25T03:45:28.758Z,69.45
2016-10-25T03:46:28.696Z,69.74
2016-10-25T03:47:28.663Z,70.6
2016-10-25T03:48:43.382Z,71.27
2016-10-25T03:49:29.059Z,71.52
2016-10-25T03:51:28.544Z,71.84
2016-10-25T03:52:28.918Z,71.23
2016-10-25T03:53:28.894Z,71.46
2016-10-25T03:54:28.543Z,71.17
2016-10-25T03:55:28.440Z,70.31
2016-10-25T03:56:28.402Z,70.31
2016-10-25T03:57:28.379Z,70.5
2016-10-25T03:58:28.398Z,70.6
2016-10-25T03:59:28.411Z,70.79
2016-10-25T04:00:28.320Z,70.7
2016-10-25T04:01:28.287Z,70.41
2016-10-25T04:02:28.639Z,70.7
2016-10-25T04:03:28.206Z,70.89
2016-10-25T04:04:29.714Z,70.98
2016-10-25T04:05:28.152Z,71.17
2016-10-25T04:06:28.377Z,72.03
2016-10-25T04:07:28.588Z,71.46
2016-10-25T04:08:28.375Z,71.17
2016-10-25T04:09:28.173Z,70.89
2016-10-25T04:10:28.027Z,71.17
2016-10-25T04:11:27.970Z,71.66
2016-10-25T04:12:27.960Z,70.79
2016-10-25T04:13:27.950Z,70.12
2016-10-25T04:14:27.889Z,70.12
2016-10-25T04:15:27.870Z,70.12
2016-10-25T04:16:27.979Z,70.21
2016-10-25T04:17:27.853Z,70.21
2016-10-25T04:18:27.796Z,70.21
2016-10-25T04:19:27.763Z,70.31
2016-10-25T04:20:27.736Z,70.21
2016-10-25T04:21:27.714Z,70.41
2016-10-25T04:22:27.680Z,70.98
2016-10-25T04:23:27.638Z,70.6
2016-10-25T04:24:27.753Z,71.08
2016-10-25T04:25:27.599Z,70.89
2016-10-25T04:26:27.600Z,71.56
2016-10-25T04:27:27.976Z,71.46
2016-10-25T04:28:27.569Z,71.27
2016-10-25T04:29:27.469Z,71.75
2016-10-25T04:30:27.519Z,72.8
2016-10-25T04:31:27.764Z,73.19
2016-10-25T04:32:27.418Z,72.23
2016-10-25T04:34:27.661Z,72.13
2016-10-25T04:35:27.338Z,71.75
2016-10-25T04:36:28.173Z,71.94
2016-10-25T04:37:27.263Z,71.75
2016-10-25T04:38:42.362Z,71.27
2016-10-25T04:39:27.185Z,71.84
2016-10-25T04:40:27.173Z,72.03
2016-10-25T04:41:27.139Z,72.13
2016-10-25T04:42:27.215Z,71.94
2016-10-25T04:43:27.058Z,72.42
2016-10-25T04:44:27.043Z,72.42
2016-10-25T04:45:27.716Z,73.57
2016-10-25T04:46:26.977Z,74.05
2016-10-25T04:47:26.948Z,75.01
2016-10-25T04:48:26.983Z,74.77
2016-10-25T04:49:26.900Z,74.43
2016-10-25T04:50:26.958Z,74.43
2016-10-25T04:51:26.881Z,74.33
2016-10-25T04:52:26.806Z,73.47
2016-10-25T04:53:26.820Z,73.38
2016-10-25T04:54:26.779Z,74.62
2016-10-25T04:55:26.730Z,74.82
2016-10-25T04:56:26.770Z,74.77
2016-10-25T04:57:26.667Z,74.62
2016-10-25T04:58:26.704Z,73.19
2016-10-25T04:59:26.618Z,73.57
2016-10-25T05:00:41.368Z,75.68
2016-10-25T05:01:26.576Z,74.72
2016-10-25T05:02:26.512Z,74.82
2016-10-25T05:03:26.513Z,75.01
2016-10-25T05:05:38.535Z,76.98
2016-10-25T05:06:35.675Z,76.6
2016-10-25T05:07:35.682Z,76.5
2016-10-25T05:08:35.777Z,75.93
2016-10-25T05:09:42.726Z,75.45
2016-10-25T05:10:35.700Z,75.48
2016-10-25T05:11:35.480Z,76.21
2016-10-25T05:12:35.490Z,76.21
2016-10-25T05:13:35.893Z,76.06
2016-10-25T05:14:35.387Z,75.83
2016-10-25T05:15:35.384Z,75.26
2016-10-25T05:16:35.426Z,75.16
2016-10-25T05:17:35.411Z,75.16
2016-10-25T05:18:35.284Z,74.82
2016-10-25T05:19:35.281Z,75.29
2016-10-25T05:20:35.587Z,76.12
2016-10-25T05:21:35.247Z,75.83
2016-10-25T05:22:35.182Z,76.73
2016-10-25T05:23:35.129Z,76.79
2016-10-25T05:24:49.834Z,76.21
2016-10-25T05:25:35.494Z,76.12
2016-10-25T05:26:35.112Z,75.83
2016-10-25T05:27:35.144Z,76.4
2016-10-25T05:28:35.010Z,74.97
2016-10-25T05:29:35.248Z,75.26
2016-10-25T05:30:34.931Z,75.35
2016-10-25T05:31:35.335Z,75.01
2016-10-25T05:32:35.158Z,74.97
2016-10-25T05:33:34.852Z,75.16
2016-10-25T05:34:34.836Z,74.82
2016-10-25T05:35:34.797Z,74.82
2016-10-25T05:36:35.442Z,74.52
2016-10-25T05:37:34.754Z,74.97
2016-10-25T05:38:34.708Z,74.82
2016-10-25T05:39:34.711Z,74.68
2016-10-25T05:40:35.053Z,74.43
2016-10-25T05:41:35.047Z,74.43
2016-10-25T05:42:49.327Z,74.33
2016-10-25T05:43:34.897Z,74.4
2016-10-25T05:44:49.488Z,74.24
2016-10-25T05:45:34.517Z,73.82
2016-10-25T05:46:34.496Z,74.15
2016-10-25T05:47:34.481Z,74.05
2016-10-25T05:48:49.161Z,74.24
2016-10-25T05:49:34.500Z,74.24
2016-10-25T05:50:34.415Z,74.52
2016-10-25T05:51:34.351Z,74.43
2016-10-25T05:52:34.832Z,74.82
2016-10-25T05:53:34.325Z,74.62
2016-10-25T05:54:34.374Z,74.43
2016-10-25T05:55:34.278Z,74.62
2016-10-25T05:56:34.582Z,74.62
2016-10-25T05:57:49.217Z,74.62
2016-10-25T05:58:34.144Z,75.2
2016-10-25T05:59:34.959Z,75.35
2016-10-25T06:00:34.236Z,75.16
2016-10-25T06:01:35.188Z,75.16
2016-10-25T06:02:34.373Z,74.97
2016-10-25T06:03:34.520Z,74.87
2016-10-25T06:04:34.039Z,75.2
2016-10-25T06:05:34.301Z,74.58
2016-10-25T06:06:33.917Z,74.72
2016-10-25T06:07:33.894Z,74.97
2016-10-25T06:08:34.677Z,74.87
2016-10-25T06:09:33.876Z,75.07
2016-10-25T06:10:33.815Z,74.4
2016-10-25T06:11:33.792Z,74.62
2016-10-25T06:12:34.376Z,74.97
2016-10-25T06:13:34.288Z,75.1
2016-10-25T06:14:33.672Z,74.82
2016-10-25T06:15:34.467Z,74.82
2016-10-25T06:16:33.694Z,74.72
2016-10-25T06:17:33.658Z,75.1
2016-10-25T06:18:33.573Z,75.07
2016-10-25T06:19:33.554Z,75.26
2016-10-25T06:20:33.612Z,74.87
2016-10-25T06:21:33.487Z,75.01
2016-10-25T06:22:33.470Z,74.97
2016-10-25T06:23:48.435Z,75.16
2016-10-25T06:24:33.825Z,75.64
2016-10-25T06:25:33.376Z,75.73
2016-10-25T06:26:33.393Z,75.93
2016-10-25T06:27:33.325Z,75.07
2016-10-25T06:28:33.294Z,75.73
2016-10-25T06:29:33.267Z,74.97
2016-10-25T06:30:33.844Z,75.07
2016-10-25T06:31:33.197Z,74.49
2016-10-25T06:32:33.187Z,74.87
2016-10-25T06:33:33.175Z,74.97
2016-10-25T06:34:33.130Z,75.1
2016-10-25T06:35:33.123Z,74.97
2016-10-25T06:36:33.679Z,75.16
2016-10-25T06:37:33.092Z,75.16
2016-10-25T06:38:33.413Z,75.54
2016-10-25T06:39:33.333Z,74.97
2016-10-25T06:40:33.627Z,74.97
2016-10-25T06:41:32.946Z,74.49
2016-10-25T06:42:32.902Z,74.4
2016-10-25T06:43:47.601Z,75.16
2016-10-25T06:44:32.858Z,75.16
2016-10-25T06:45:32.964Z,75.64
2016-10-25T06:46:32.765Z,75.73
2016-10-25T06:47:32.781Z,74.97
2016-10-25T06:48:33.076Z,75.35
2016-10-25T06:49:32.677Z,75.16
2016-10-25T06:50:39.309Z,75.07
2016-10-25T06:51:32.625Z,75.26
2016-10-25T06:52:32.634Z,74.77
2016-10-25T06:53:32.704Z,74.97
2016-10-25T06:54:32.554Z,74.87
2016-10-25T06:55:32.560Z,75.07
2016-10-25T06:56:32.502Z,75.35
2016-10-25T06:57:32.537Z,74.97
2016-10-25T06:58:32.969Z,75.07
2016-10-25T06:59:32.804Z,75.16
2016-10-25T07:00:32.484Z,75.07
2016-10-25T07:01:32.368Z,75.26
2016-10-25T07:02:32.321Z,75.26
2016-10-25T07:03:32.375Z,75.35
2016-10-25T07:04:32.703Z,75.07
2016-10-25T07:05:32.242Z,75.07
2016-10-25T07:06:32.365Z,75.07
2016-10-25T07:07:32.179Z,74.97
2016-10-25T07:08:32.155Z,75.35
2016-10-25T07:09:32.322Z,75.73
2016-10-25T07:10:32.126Z,75.35
2016-10-25T07:11:32.465Z,75.45
2016-10-25T07:12:32.038Z,75.35
2016-10-25T07:13:32.344Z,75.54
2016-10-25T07:14:31.982Z,75.35
2016-10-25T07:15:32.767Z,75.35
2016-10-25T07:16:31.931Z,75.35
2016-10-25T07:17:31.887Z,74.97
2016-10-25T07:18:31.853Z,75.64
2016-10-25T07:19:31.844Z,75.73
2016-10-25T07:20:31.812Z,75.35
2016-10-25T07:21:31.810Z,75.54
2016-10-25T07:22:31.873Z,75.16
2016-10-25T07:23:31.729Z,74.97
2016-10-25T07:24:31.689Z,75.26
2016-10-25T07:25:31.894Z,75.35
2016-10-25T07:26:31.648Z,75.35
2016-10-25T07:27:31.745Z,75.26
2016-10-25T07:28:31.568Z,75.07
2016-10-25T07:29:31.619Z,75.54
2016-10-25T07:30:31.582Z,76.21
2016-10-25T07:31:31.476Z,75.64
2016-10-25T07:32:31.469Z,75.26
2016-10-25T07:33:31.460Z,74.97
2016-10-25T07:34:31.408Z,75.16
2016-10-25T07:35:31.397Z,75.45
2016-10-25T07:37:31.307Z,75.07
2016-10-25T07:38:31.318Z,75.45
2016-10-25T07:39:31.256Z,75.07
2016-10-25T07:40:31.233Z,75.35
2016-10-25T07:41:31.239Z,75.16
2016-10-25T07:42:31.233Z,75.26
2016-10-25T07:43:31.177Z,75.35
2016-10-25T07:45:31.097Z,75.35
2016-10-25T07:46:31.433Z,75.26
2016-10-25T07:47:31.032Z,75.07
2016-10-25T07:48:31.025Z,75.73
2016-10-25T07:49:31.008Z,75.73
2016-10-25T07:50:30.975Z,75.35
2016-10-25T07:51:30.972Z,75.16
2016-10-25T07:52:30.966Z,76.02
2016-10-25T07:53:30.866Z,74.87
2016-10-25T07:54:30.880Z,75.73
2016-10-25T07:55:31.188Z,75.45
2016-10-25T07:56:31.499Z,74.97
2016-10-25T07:57:30.744Z,75.35
2016-10-25T07:58:30.713Z,75.16
2016-10-25T07:59:30.695Z,74.97
2016-10-25T08:00:31.103Z,75.54
2016-10-25T08:01:31.091Z,75.64
2016-10-25T08:02:30.613Z,76.21
2016-10-25T08:03:30.585Z,76.02
2016-10-25T08:04:30.574Z,76.4
2016-10-25T08:05:31.185Z,76.4
2016-10-25T08:06:30.493Z,76.02
2016-10-25T08:07:30.454Z,76.02
2016-10-25T08:08:45.172Z,75.93
2016-10-25T08:09:30.446Z,76.31
2016-10-25T08:10:30.729Z,75.35
2016-10-25T08:11:30.362Z,76.4
2016-10-25T08:12:30.324Z,75.54
2016-10-25T08:13:30.389Z,75.93
2016-10-25T08:14:30.263Z,76.31
2016-10-25T08:15:30.229Z,76.4
2016-10-25T08:16:30.200Z,75.16
2016-10-25T08:17:30.198Z,75.26
2016-10-25T08:18:30.148Z,75.07
2016-10-25T08:19:30.463Z,75.07
2016-10-25T08:20:30.081Z,74.97
2016-10-25T08:21:30.921Z,75.93
2016-10-25T08:22:30.403Z,75.35
2016-10-25T08:23:30.414Z,75.26
2016-10-25T08:24:29.966Z,75.07
2016-10-25T08:25:30.033Z,75.07
2016-10-25T08:26:29.953Z,76.21
2016-10-25T08:27:30.254Z,75.93
2016-10-25T08:28:29.864Z,76.02
2016-10-25T08:29:29.878Z,76.4
2016-10-25T08:30:30.175Z,76.4
2016-10-25T08:31:29.782Z,74.97
2016-10-25T08:32:30.206Z,75.35
2016-10-25T08:33:29.785Z,74.97
2016-10-25T08:34:30.181Z,75.16
2016-10-25T08:35:29.712Z,74.68
2016-10-25T08:36:29.658Z,75.35
2016-10-25T08:37:29.694Z,75.31
2016-10-25T08:38:29.592Z,75.35
2016-10-25T08:39:29.954Z,76.08
2016-10-25T08:40:29.529Z,75.12
2016-10-25T08:41:29.498Z,75.41
2016-10-25T08:42:29.455Z,76.18
2016-10-25T08:43:29.437Z,75.89
2016-10-25T08:44:29.781Z,76.46
2016-10-25T08:45:29.366Z,76.65
2016-10-25T08:46:44.093Z,76.56
2016-10-25T08:47:29.304Z,76.94
2016-10-25T08:48:29.277Z,76.37
2016-10-25T08:49:29.250Z,76.37
2016-10-25T08:50:29.225Z,76.37
2016-10-25T08:51:29.207Z,75.98
2016-10-25T08:52:43.911Z,76.75
2016-10-25T08:53:29.522Z,76.37
2016-10-25T08:54:29.336Z,76.46
2016-10-25T08:55:29.101Z,76.46
2016-10-25T08:56:29.064Z,75.7
2016-10-25T08:57:29.559Z,76.37
2016-10-25T08:58:28.997Z,75.89
2016-10-25T08:59:43.699Z,75.51
2016-10-25T09:01:29.405Z,75.89
2016-10-25T09:02:28.903Z,75.98
2016-10-25T09:03:29.333Z,75.98
2016-10-25T09:04:28.864Z,76.18
2016-10-25T09:05:29.205Z,76.18
2016-10-25T09:06:29.131Z,76.37
2016-10-25T09:07:28.777Z,76.52
2016-10-25T09:08:29.183Z,76.56
2016-10-25T09:09:28.660Z,76.27
2016-10-25T09:10:28.705Z,76.18
2016-10-25T09:11:29.039Z,75.79
2016-10-25T09:12:28.586Z,76.46
2016-10-25T09:13:28.586Z,76.08
2016-10-25T09:14:28.935Z,76.56
2016-10-25T09:15:28.519Z,76.56
2016-10-25T09:16:28.490Z,76.94
2016-10-25T09:17:28.465Z,76.65
2016-10-25T09:18:28.457Z,76.56
2016-10-25T09:19:28.418Z,76.14
2016-10-25T09:20:28.402Z,76.81
2016-10-25T09:21:43.370Z,76.46
2016-10-25T09:22:28.355Z,76.37
2016-10-25T09:23:28.362Z,76.18
2016-10-25T09:24:28.706Z,76.18
2016-10-25T09:25:28.264Z,75.98
2016-10-25T09:26:28.195Z,76.27
2016-10-25T09:27:28.176Z,76.08
2016-10-25T09:28:28.143Z,75.89
2016-10-25T09:29:28.335Z,75.89
2016-10-25T09:30:28.070Z,75.7
2016-10-25T09:31:28.038Z,75.89
2016-10-25T09:32:28.010Z,75.7
2016-10-25T09:33:27.980Z,75.51
2016-10-25T09:34:27.960Z,75.41
2016-10-25T09:35:27.967Z,75.98
2016-10-25T09:36:27.994Z,75.22
2016-10-25T09:38:28.103Z,75.41
2016-10-25T09:39:28.312Z,74.93
2016-10-25T09:40:27.813Z,75.31
2016-10-25T09:41:28.117Z,76.18
2016-10-25T09:42:28.002Z,76.18
2016-10-25T09:43:27.704Z,76.18
2016-10-25T09:44:27.677Z,76.27
2016-10-25T09:45:27.664Z,75.98
2016-10-25T09:47:27.660Z,76.08
2016-10-25T09:48:27.600Z,75.79
2016-10-25T09:49:27.538Z,75.7
2016-10-25T09:50:28.271Z,75.02
2016-10-25T09:51:27.891Z,74.93
2016-10-25T09:52:27.474Z,74.93
2016-10-25T09:53:27.428Z,75.02
2016-10-25T09:54:27.994Z,75.6
2016-10-25T09:55:28.362Z,75.41
2016-10-25T09:56:27.658Z,75.51
2016-10-25T09:57:27.949Z,75.7
2016-10-25T09:58:27.256Z,75.51
2016-10-25T09:59:27.240Z,75.02
2016-10-25T10:00:27.414Z,75.6
2016-10-25T10:01:27.981Z,75.51
2016-10-25T10:02:27.171Z,75.51
2016-10-25T10:03:27.495Z,74.93
2016-10-25T10:04:27.163Z,75.02
2016-10-25T10:05:27.448Z,74.93
2016-10-25T10:06:27.047Z,75.31
2016-10-25T10:07:27.376Z,75.31
2016-10-25T10:08:27.006Z,75.12
2016-10-25T10:09:26.951Z,74.93
2016-10-25T10:10:27.060Z,74.93
2016-10-25T10:11:26.897Z,74.87
2016-10-25T10:12:26.899Z,74.97
2016-10-25T10:13:26.852Z,74.74
2016-10-25T10:14:27.622Z,74.97
2016-10-25T10:15:27.148Z,74.93
2016-10-25T10:16:26.783Z,74.87
2016-10-25T10:17:27.098Z,74.97
2016-10-25T10:18:26.693Z,74.55
2016-10-25T10:19:26.662Z,74.4
2016-10-25T10:20:26.636Z,74.55
2016-10-25T10:21:26.601Z,74.36
2016-10-25T10:22:26.643Z,75.22
2016-10-25T10:23:26.565Z,74.45
2016-10-25T10:24:26.507Z,74.58
2016-10-25T10:25:41.221Z,74.45
2016-10-25T10:26:26.483Z,74.45
2016-10-25T10:27:26.455Z,74.55
2016-10-25T10:28:26.413Z,74.68
2016-10-25T10:29:26.972Z,74.68
2016-10-25T10:30:41.077Z,74.77
2016-10-25T10:31:26.325Z,74.58
2016-10-25T10:32:26.330Z,74.77
2016-10-25T10:33:26.302Z,74.49
2016-10-25T10:34:26.254Z,74.55
2016-10-25T10:35:27.777Z,74.45
2016-10-25T10:36:26.549Z,74.55
2016-10-25T10:37:26.619Z,74.74
2016-10-25T10:38:26.132Z,74.55
2016-10-25T10:40:26.462Z,74.74
2016-10-25T10:41:40.789Z,74.4
2016-10-25T10:42:26.696Z,74.4
2016-10-25T10:43:25.971Z,74.68
2016-10-25T10:44:25.957Z,74.58
2016-10-25T10:45:26.321Z,74.87
2016-10-25T10:46:25.926Z,74.58
2016-10-25T10:47:25.871Z,74.77
2016-10-25T10:48:25.968Z,74.4
2016-10-25T10:49:25.821Z,74.4
2016-10-25T10:50:25.769Z,74.58
2016-10-25T10:51:25.748Z,74.4
2016-10-25T10:52:25.734Z,74.68
2016-10-25T10:53:25.687Z,74.3
2016-10-25T10:54:25.651Z,74.4
2016-10-25T10:55:25.677Z,74.49
2016-10-25T10:56:25.622Z,74.58
2016-10-25T10:57:25.570Z,74.49
2016-10-25T10:58:25.563Z,74.4
2016-10-25T10:59:25.524Z,74.68
2016-10-25T11:00:25.497Z,74.49
2016-10-25T11:02:25.812Z,74.49
2016-10-25T11:03:40.133Z,74.49
2016-10-25T11:04:25.820Z,74.4
2016-10-25T11:05:26.103Z,74.58
2016-10-25T11:06:25.379Z,74.4
2016-10-25T11:07:25.303Z,74.49
2016-10-25T11:08:25.260Z,74.11
2016-10-25T11:09:25.569Z,74.68
2016-10-25T11:10:25.225Z,74.11
2016-10-25T11:11:25.179Z,74.58
2016-10-25T11:12:25.150Z,74.58
2016-10-25T11:13:25.170Z,74.4
2016-10-25T11:14:25.103Z,74.3
2016-10-25T11:15:25.141Z,74.4
2016-10-25T11:16:25.041Z,74.77
2016-10-25T11:17:25.405Z,74.58
2016-10-25T11:18:25.002Z,74.49
2016-10-25T11:19:24.952Z,74.3
2016-10-25T11:20:24.965Z,74.3
2016-10-25T11:21:25.257Z,74.77
2016-10-25T11:22:24.855Z,74.58
2016-10-25T11:23:25.011Z,74.58
2016-10-25T11:24:24.927Z,74.01
2016-10-25T11:25:24.766Z,74.49
2016-10-25T11:26:24.773Z,74.2
2016-10-25T11:27:24.738Z,74.58
2016-10-25T11:28:24.710Z,74.68
2016-10-25T11:29:24.668Z,74.58
2016-10-25T11:30:24.626Z,74.4
2016-10-25T11:31:24.596Z,74.68
2016-10-25T11:32:24.689Z,74.68
2016-10-25T11:33:24.531Z,74.05
2016-10-25T11:34:24.619Z,74.05
2016-10-25T11:35:25.308Z,74.33
2016-10-25T11:36:24.457Z,74.15
2016-10-25T11:37:24.425Z,74.24
2016-10-25T11:38:24.396Z,73.86
2016-10-25T11:39:24.378Z,74.01
2016-10-25T11:40:24.339Z,74.15
2016-10-25T11:41:24.681Z,74.33
2016-10-25T11:43:24.263Z,73.57
2016-10-25T11:44:24.231Z,73.66
2016-10-25T11:45:24.678Z,73.66
2016-10-25T11:46:24.279Z,73.38
2016-10-25T11:48:24.133Z,73.76
2016-10-25T11:50:24.441Z,73.47
2016-10-25T11:51:24.062Z,72.99
2016-10-25T11:52:24.030Z,73.19
2016-10-25T11:53:24.011Z,72.9
2016-10-25T11:54:23.961Z,73.28
2016-10-25T11:55:24.208Z,73.28
2016-10-25T11:56:23.963Z,73.19
2016-10-25T11:57:23.899Z,73.19
2016-10-25T11:58:23.856Z,72.8
2016-10-25T11:59:23.845Z,73.28
2016-10-25T12:00:23.774Z,73.38
2016-10-25T12:01:24.210Z,73.38
2016-10-25T12:04:47.129Z,73.38
2016-10-25T12:06:01.531Z,73.28
2016-10-25T12:06:46.785Z,72.71
2016-10-25T12:07:46.727Z,73.38
2016-10-25T12:08:46.777Z,72.99
2016-10-25T12:09:46.772Z,72.9
2016-10-25T12:10:46.632Z,72.52
2016-10-25T12:11:46.669Z,72.8
2016-10-25T12:12:46.945Z,73.28
2016-10-25T12:13:46.602Z,72.9
2016-10-25T12:14:46.566Z,73.38
2016-10-25T12:15:47.258Z,73.28
2016-10-25T12:16:46.498Z,73.28
2016-10-25T12:17:46.488Z,73.28
2016-10-25T12:18:46.455Z,73.28
2016-10-25T12:19:46.454Z,73.38
2016-10-25T12:20:46.426Z,73.72
2016-10-25T12:21:46.953Z,73.57
2016-10-25T12:22:46.371Z,73.57
2016-10-25T12:23:46.293Z,73.47
2016-10-25T12:24:46.398Z,73.09
2016-10-25T12:25:46.416Z,72.99
2016-10-25T12:26:46.212Z,72.99
2016-10-25T12:27:46.174Z,72.99
2016-10-25T12:28:46.527Z,73.28
2016-10-25T12:29:46.104Z,73.47
2016-10-25T12:30:46.095Z,73.28
2016-10-25T12:32:46.370Z,73.38
2016-10-25T12:33:46.552Z,73.47
2016-10-25T12:34:46.007Z,72.8
2016-10-25T12:35:45.941Z,73.28
2016-10-25T12:36:45.911Z,73.19
2016-10-25T12:38:00.629Z,73.28
2016-10-25T12:38:45.861Z,73.28
2016-10-25T12:39:45.824Z,73.28
2016-10-25T12:40:45.797Z,73.19
2016-10-25T12:41:47.059Z,72.99
2016-10-25T12:42:45.762Z,72.71
2016-10-25T12:43:48.865Z,72.42
2016-10-25T12:44:45.694Z,72.61
2016-10-25T12:49:32.331Z,72.8
2016-10-25T12:50:31.910Z,72.23
2016-10-25T12:51:31.915Z,72.8
2016-10-25T12:52:31.971Z,72.8
2016-10-25T12:53:31.887Z,72.52
2016-10-25T12:54:31.845Z,74.43
2016-10-25T12:55:31.774Z,73.57
2016-10-25T12:56:46.545Z,73.38
2016-10-25T12:57:32.099Z,73.28
2016-10-25T12:58:46.390Z,73.57
2016-10-25T12:59:31.688Z,73.47
2016-10-25T13:00:46.394Z,73.95
2016-10-25T13:01:31.669Z,73.19
2016-10-25T13:02:46.306Z,73.47
2016-10-25T13:03:31.563Z,73.66
2016-10-25T13:04:31.515Z,73.28
2016-10-25T13:05:32.329Z,73.57
2016-10-25T13:06:31.518Z,73.76
2016-10-25T13:07:31.474Z,73.38
2016-10-25T13:08:31.442Z,73.66
2016-10-25T13:12:32.305Z,73.86
2016-10-25T13:13:32.277Z,74.24
2016-10-25T13:14:17.714Z,74.43
2016-10-25T13:15:18.237Z,73.57
2016-10-25T13:16:17.863Z,73.57
2016-10-25T13:18:55.670Z,73.57
2016-10-25T13:19:40.528Z,73.86
2016-10-25T13:20:40.505Z,73.38
2016-10-25T13:21:40.480Z,73.38
2016-10-25T13:22:40.654Z,73.38